createdAt,value
2017-01-25T00:00:21.019Z,25.51
2017-01-25T00:01:01.602Z,25.79
2017-01-25T00:01:42.187Z,25.5
2017-01-25T00:02:22.796Z,25.7
2017-01-25T00:03:03.345Z,25.79
2017-01-25T00:03:43.937Z,25.7
2017-01-25T00:04:24.537Z,25.6
2017-01-25T00:05:05.131Z,25.6
2017-01-25T00:05:45.722Z,25.7
2017-01-25T00:06:26.312Z,25.7
2017-01-25T00:07:06.897Z,25.7
2017-01-25T00:07:47.476Z,25.7
2017-01-25T00:08:28.052Z,25.79
2017-01-25T00:09:08.639Z,25.61
2017-01-25T00:09:49.228Z,25.6
2017-01-25T00:10:29.826Z,25.89
2017-01-25T00:11:10.408Z,25.7
2017-01-25T00:11:51.006Z,25.7
2017-01-25T00:12:31.576Z,25.6
2017-01-25T00:13:12.165Z,25.6
2017-01-25T00:13:52.759Z,25.6
2017-01-25T00:14:33.361Z,25.7
2017-01-25T00:15:13.939Z,25.7
2017-01-25T00:15:54.514Z,25.7
2017-01-25T00:16:35.087Z,25.7
2017-01-25T00:17:15.666Z,25.7
2017-01-25T00:17:56.252Z,25.6
2017-01-25T00:18:36.836Z,25.7
2017-01-25T00:19:17.427Z,25.5
2017-01-25T00:19:58.028Z,25.5
2017-01-25T00:20:38.625Z,25.7
2017-01-25T00:21:19.215Z,25.7
2017-01-25T00:21:59.802Z,25.4
2017-01-25T00:22:40.398Z,25.7
2017-01-25T00:23:20.986Z,25.7
2017-01-25T00:24:01.569Z,25.79
2017-01-25T00:24:42.147Z,25.79
2017-01-25T00:25:22.740Z,25.79
2017-01-25T00:26:03.323Z,25.79
2017-01-25T00:26:43.900Z,25.89
2017-01-25T00:27:24.489Z,25.89
2017-01-25T00:28:05.075Z,25.6
2017-01-25T00:28:45.652Z,25.79
2017-01-25T00:29:26.239Z,25.89
2017-01-25T00:30:06.836Z,25.79
2017-01-25T00:30:47.412Z,25.89
2017-01-25T00:31:27.992Z,25.89
2017-01-25T00:32:08.586Z,25.79
2017-01-25T00:32:49.165Z,25.79
2017-01-25T00:33:29.746Z,25.79
2017-01-25T00:34:10.348Z,25.79
2017-01-25T00:34:50.951Z,25.79
2017-01-25T00:35:31.551Z,25.79
2017-01-25T00:36:12.135Z,25.79
2017-01-25T00:36:52.718Z,25.5
2017-01-25T00:37:33.307Z,25.7
2017-01-25T00:38:13.907Z,25.7
2017-01-25T00:38:54.518Z,25.79
2017-01-25T00:39:35.114Z,25.79
2017-01-25T00:40:15.712Z,25.79
2017-01-25T00:40:56.324Z,25.89
2017-01-25T00:41:36.904Z,25.89
2017-01-25T00:42:17.489Z,25.79
2017-01-25T00:42:58.073Z,25.79
2017-01-25T00:43:38.668Z,25.7
2017-01-25T00:44:19.263Z,25.79
2017-01-25T00:44:59.841Z,25.7
2017-01-25T00:45:40.421Z,25.5
2017-01-25T00:46:21.008Z,25.79
2017-01-25T00:47:01.585Z,25.89
2017-01-25T00:47:42.175Z,25.7
2017-01-25T00:48:22.761Z,25.79
2017-01-25T00:49:03.354Z,25.6
2017-01-25T00:49:43.939Z,25.79
2017-01-25T00:50:24.543Z,25.6
2017-01-25T00:51:05.141Z,25.79
2017-01-25T00:51:45.737Z,25.89
2017-01-25T00:52:26.335Z,25.6
2017-01-25T00:53:06.926Z,25.89
2017-01-25T00:53:47.510Z,25.89
2017-01-25T00:54:28.105Z,25.79
2017-01-25T00:55:08.707Z,25.7
2017-01-25T00:55:49.286Z,25.89
2017-01-25T00:56:29.873Z,25.89
2017-01-25T00:57:10.470Z,25.79
2017-01-25T00:57:51.049Z,25.6
2017-01-25T00:58:31.628Z,25.89
2017-01-25T00:59:12.213Z,25.89
2017-01-25T00:59:52.800Z,25.79
2017-01-25T01:00:33.382Z,25.7
2017-01-25T01:01:13.982Z,25.7
2017-01-25T01:01:54.565Z,25.79
2017-01-25T01:02:35.155Z,25.79
2017-01-25T01:03:15.736Z,25.79
2017-01-25T01:03:56.327Z,25.79
2017-01-25T01:04:36.935Z,25.89
2017-01-25T01:05:17.523Z,25.79
2017-01-25T01:05:58.100Z,25.79
2017-01-25T01:06:38.689Z,25.6
2017-01-25T01:07:19.294Z,25.89
2017-01-25T01:07:59.902Z,25.6
2017-01-25T01:08:40.494Z,25.7
2017-01-25T01:09:21.073Z,25.89
2017-01-25T01:10:01.652Z,25.7
2017-01-25T01:10:42.255Z,25.89
2017-01-25T01:11:22.840Z,25.89
2017-01-25T01:12:03.429Z,25.89
2017-01-25T01:12:44.016Z,25.7
2017-01-25T01:13:24.592Z,25.7
2017-01-25T01:14:05.178Z,25.7
2017-01-25T01:14:45.756Z,25.79
2017-01-25T01:15:26.355Z,25.89
2017-01-25T01:16:06.942Z,25.79
2017-01-25T01:16:47.519Z,25.6
2017-01-25T01:17:28.096Z,25.6
2017-01-25T01:18:08.682Z,25.89
2017-01-25T01:18:49.270Z,25.89
2017-01-25T01:19:29.853Z,25.6
2017-01-25T01:20:10.434Z,25.6
2017-01-25T01:20:51.016Z,25.6
2017-01-25T01:21:31.594Z,25.7
2017-01-25T01:22:12.184Z,25.79
2017-01-25T01:22:52.779Z,25.7
2017-01-25T01:23:33.372Z,25.79
2017-01-25T01:24:13.954Z,25.89
2017-01-25T01:24:54.532Z,25.79
2017-01-25T01:25:35.114Z,25.7
2017-01-25T01:26:15.693Z,25.79
2017-01-25T01:26:56.276Z,25.79
2017-01-25T01:27:36.860Z,25.89
2017-01-25T01:28:17.440Z,25.89
2017-01-25T01:28:58.024Z,25.89
2017-01-25T01:29:38.611Z,25.7
2017-01-25T01:30:19.199Z,25.87
2017-01-25T01:30:59.789Z,25.7
2017-01-25T01:31:40.397Z,25.79
2017-01-25T01:32:20.979Z,25.79
2017-01-25T01:33:01.579Z,25.7
2017-01-25T01:33:42.200Z,25.78
2017-01-25T01:34:22.794Z,25.79
2017-01-25T01:35:03.391Z,25.7
2017-01-25T01:35:43.975Z,25.6
2017-01-25T01:36:24.583Z,25.6
2017-01-25T01:37:05.172Z,25.7
2017-01-25T01:37:45.772Z,25.59
2017-01-25T01:38:26.363Z,25.49
2017-01-25T01:39:06.958Z,25.87
2017-01-25T01:39:47.557Z,25.78
2017-01-25T01:40:28.136Z,25.79
2017-01-25T01:41:08.721Z,25.79
2017-01-25T01:41:50.122Z,25.78
2017-01-25T01:42:30.753Z,25.68
2017-01-25T01:43:11.327Z,25.98
2017-01-25T01:43:51.915Z,25.97
2017-01-25T01:44:32.501Z,25.68
2017-01-25T01:45:13.089Z,25.98
2017-01-25T01:45:53.680Z,25.87
2017-01-25T01:46:34.268Z,25.6
2017-01-25T01:47:14.861Z,25.59
2017-01-25T01:47:55.446Z,25.87
2017-01-25T01:48:36.037Z,25.79
2017-01-25T01:49:16.624Z,25.87
2017-01-25T01:49:57.212Z,25.87
2017-01-25T01:50:37.814Z,25.89
2017-01-25T01:51:18.404Z,25.78
2017-01-25T01:51:59.000Z,25.87
2017-01-25T01:52:39.618Z,25.68
2017-01-25T01:53:20.191Z,25.78
2017-01-25T01:54:00.768Z,25.68
2017-01-25T01:54:41.367Z,25.59
2017-01-25T01:55:21.969Z,25.7
2017-01-25T01:56:02.553Z,25.59
2017-01-25T01:56:43.149Z,25.87
2017-01-25T01:57:23.737Z,25.89
2017-01-25T01:58:04.310Z,25.79
2017-01-25T01:58:44.898Z,25.98
2017-01-25T01:59:25.482Z,25.78
2017-01-25T02:00:06.066Z,25.87
2017-01-25T02:00:46.657Z,25.87
2017-01-25T02:01:27.248Z,25.59
2017-01-25T02:02:07.840Z,25.7
2017-01-25T02:02:48.428Z,25.89
2017-01-25T02:03:29.021Z,25.59
2017-01-25T02:04:09.609Z,25.97
2017-01-25T02:04:50.206Z,25.78
2017-01-25T02:05:30.804Z,25.78
2017-01-25T02:06:11.398Z,25.89
2017-01-25T02:06:51.987Z,25.68
2017-01-25T02:07:32.569Z,25.68
2017-01-25T02:08:13.147Z,25.79
2017-01-25T02:08:53.747Z,25.78
2017-01-25T02:09:34.326Z,25.87
2017-01-25T02:10:14.919Z,25.79
2017-01-25T02:10:55.502Z,25.6
2017-01-25T02:11:36.091Z,25.68
2017-01-25T02:12:16.700Z,25.78
2017-01-25T02:12:57.296Z,25.78
2017-01-25T02:13:37.903Z,25.78
2017-01-25T02:14:18.495Z,25.87
2017-01-25T02:14:59.085Z,25.6
2017-01-25T02:15:39.672Z,25.78
2017-01-25T02:16:20.270Z,25.78
2017-01-25T02:17:00.857Z,25.68
2017-01-25T02:17:41.448Z,25.59
2017-01-25T02:18:22.033Z,25.78
2017-01-25T02:19:02.614Z,25.87
2017-01-25T02:19:43.226Z,25.78
2017-01-25T02:20:23.827Z,25.87
2017-01-25T02:21:04.420Z,25.49
2017-01-25T02:21:45.043Z,25.78
2017-01-25T02:22:25.594Z,25.87
2017-01-25T02:23:06.174Z,25.59
2017-01-25T02:23:46.759Z,25.68
2017-01-25T02:24:27.360Z,25.59
2017-01-25T02:25:07.945Z,25.78
2017-01-25T02:25:48.539Z,25.78
2017-01-25T02:26:29.140Z,25.68
2017-01-25T02:27:09.735Z,25.78
2017-01-25T02:27:50.330Z,25.78
2017-01-25T02:28:30.912Z,25.78
2017-01-25T02:29:11.492Z,25.6
2017-01-25T02:29:52.075Z,25.68
2017-01-25T02:30:32.664Z,25.78
2017-01-25T02:31:13.260Z,25.78
2017-01-25T02:31:53.849Z,25.7
2017-01-25T02:32:34.439Z,25.87
2017-01-25T02:33:15.023Z,25.68
2017-01-25T02:33:55.616Z,25.87
2017-01-25T02:34:36.195Z,25.68
2017-01-25T02:35:16.776Z,25.68
2017-01-25T02:35:57.357Z,25.68
2017-01-25T02:36:37.966Z,25.97
2017-01-25T02:37:18.563Z,25.78
2017-01-25T02:37:59.162Z,25.97
2017-01-25T02:38:39.750Z,25.97
2017-01-25T02:39:20.326Z,25.59
2017-01-25T02:40:00.918Z,25.68
2017-01-25T02:40:41.498Z,25.78
2017-01-25T02:41:22.074Z,25.78
2017-01-25T02:42:02.658Z,25.78
2017-01-25T02:42:43.244Z,25.87
2017-01-25T02:43:23.838Z,25.87
2017-01-25T02:44:04.423Z,25.68
2017-01-25T02:44:44.997Z,25.78
2017-01-25T02:45:25.586Z,25.78
2017-01-25T02:46:06.173Z,25.78
2017-01-25T02:46:46.768Z,25.78
2017-01-25T02:47:27.353Z,25.87
2017-01-25T02:48:07.990Z,25.97
2017-01-25T02:48:48.580Z,25.97
2017-01-25T02:49:29.197Z,25.78
2017-01-25T02:50:09.790Z,25.68
2017-01-25T02:50:50.373Z,25.59
2017-01-25T02:51:30.951Z,25.87
2017-01-25T02:52:11.536Z,25.97
2017-01-25T02:52:52.122Z,25.97
2017-01-25T02:53:32.710Z,25.87
2017-01-25T02:54:13.324Z,25.68
2017-01-25T02:54:53.920Z,25.59
2017-01-25T02:55:34.485Z,25.68
2017-01-25T02:56:15.065Z,25.87
2017-01-25T02:56:55.666Z,25.68
2017-01-25T02:57:36.253Z,25.97
2017-01-25T02:58:16.841Z,25.78
2017-01-25T02:58:57.448Z,25.97
2017-01-25T02:59:38.064Z,25.97
2017-01-25T03:00:19.554Z,25.87
2017-01-25T03:01:00.133Z,25.68
2017-01-25T03:01:40.720Z,25.78
2017-01-25T03:02:21.334Z,25.97
2017-01-25T03:03:01.932Z,25.59
2017-01-25T03:03:42.522Z,25.68
2017-01-25T03:04:23.111Z,25.87
2017-01-25T03:05:03.706Z,25.78
2017-01-25T03:05:44.336Z,25.68
2017-01-25T03:06:24.923Z,25.78
2017-01-25T03:07:05.515Z,25.78
2017-01-25T03:07:46.104Z,25.87
2017-01-25T03:08:26.702Z,25.97
2017-01-25T03:09:07.292Z,25.87
2017-01-25T03:09:47.886Z,25.87
2017-01-25T03:10:28.472Z,25.78
2017-01-25T03:11:09.045Z,25.87
2017-01-25T03:11:49.633Z,25.97
2017-01-25T03:12:30.235Z,25.78
2017-01-25T03:13:10.829Z,25.68
2017-01-25T03:13:51.410Z,25.87
2017-01-25T03:14:31.990Z,25.97
2017-01-25T03:15:12.555Z,25.78
2017-01-25T03:15:53.137Z,25.97
2017-01-25T03:16:33.729Z,25.68
2017-01-25T03:17:14.340Z,25.97
2017-01-25T03:17:54.933Z,25.78
2017-01-25T03:18:35.528Z,25.97
2017-01-25T03:19:16.102Z,25.59
2017-01-25T03:19:56.711Z,25.78
2017-01-25T03:20:37.310Z,25.78
2017-01-25T03:21:17.890Z,25.97
2017-01-25T03:21:58.472Z,25.87
2017-01-25T03:22:39.057Z,25.78
2017-01-25T03:23:19.656Z,25.78
2017-01-25T03:24:00.264Z,25.78
2017-01-25T03:24:40.856Z,25.87
2017-01-25T03:25:21.466Z,25.78
2017-01-25T03:26:02.055Z,25.97
2017-01-25T03:26:42.640Z,25.68
2017-01-25T03:27:23.225Z,25.78
2017-01-25T03:28:03.807Z,25.68
2017-01-25T03:28:44.385Z,25.87
2017-01-25T03:29:24.974Z,25.87
2017-01-25T03:30:05.561Z,25.97
2017-01-25T03:30:46.145Z,25.68
2017-01-25T03:31:26.741Z,25.68
2017-01-25T03:32:07.345Z,25.59
2017-01-25T03:32:47.930Z,25.78
2017-01-25T03:33:28.542Z,25.59
2017-01-25T03:34:09.135Z,25.68
2017-01-25T03:34:49.712Z,25.78
2017-01-25T03:35:30.293Z,25.78
2017-01-25T03:36:10.887Z,25.68
2017-01-25T03:36:51.465Z,25.78
2017-01-25T03:37:32.066Z,25.78
2017-01-25T03:38:12.653Z,25.78
2017-01-25T03:38:53.252Z,25.87
2017-01-25T03:39:33.834Z,25.68
2017-01-25T03:40:14.451Z,25.78
2017-01-25T03:40:55.068Z,25.78
2017-01-25T03:41:35.695Z,25.68
2017-01-25T03:42:16.244Z,25.59
2017-01-25T03:42:56.832Z,25.68
2017-01-25T03:43:37.424Z,25.68
2017-01-25T03:44:18.003Z,25.78
2017-01-25T03:44:58.604Z,25.68
2017-01-25T03:45:39.196Z,25.68
2017-01-25T03:46:19.776Z,25.68
2017-01-25T03:47:00.378Z,25.68
2017-01-25T03:47:40.964Z,25.68
2017-01-25T03:48:21.579Z,25.59
2017-01-25T03:49:02.177Z,25.59
2017-01-25T03:49:42.754Z,25.78
2017-01-25T03:50:23.391Z,25.68
2017-01-25T03:51:03.984Z,25.59
2017-01-25T03:51:44.577Z,25.59
2017-01-25T03:52:25.164Z,25.78
2017-01-25T03:53:05.739Z,25.68
2017-01-25T03:53:46.331Z,25.59
2017-01-25T03:54:26.910Z,25.68
2017-01-25T03:55:07.512Z,25.78
2017-01-25T03:55:48.098Z,25.68
2017-01-25T03:56:28.692Z,25.87
2017-01-25T03:57:09.294Z,25.87
2017-01-25T03:57:49.917Z,25.59
2017-01-25T03:58:30.512Z,25.68
2017-01-25T03:59:11.108Z,25.59
2017-01-25T03:59:51.716Z,25.59
2017-01-25T04:00:32.316Z,25.87
2017-01-25T04:01:12.905Z,25.78
2017-01-25T04:01:53.486Z,25.68
2017-01-25T04:02:34.067Z,25.68
2017-01-25T04:03:14.656Z,25.78
2017-01-25T04:03:55.249Z,25.78
2017-01-25T04:04:35.824Z,25.87
2017-01-25T04:05:16.425Z,25.78
2017-01-25T04:05:57.050Z,25.78
2017-01-25T04:06:37.633Z,25.87
2017-01-25T04:07:18.233Z,25.68
2017-01-25T04:07:58.826Z,25.49
2017-01-25T04:08:39.419Z,25.78
2017-01-25T04:09:20.029Z,25.68
2017-01-25T04:10:00.623Z,25.68
2017-01-25T04:10:41.230Z,25.49
2017-01-25T04:11:21.824Z,25.59
2017-01-25T04:12:02.407Z,25.97
2017-01-25T04:12:42.984Z,25.87
2017-01-25T04:13:23.571Z,25.87
2017-01-25T04:14:04.173Z,25.86
2017-01-25T04:14:44.760Z,25.67
2017-01-25T04:15:25.340Z,25.68
2017-01-25T04:16:05.942Z,25.68
2017-01-25T04:16:46.515Z,25.68
2017-01-25T04:17:27.107Z,25.59
2017-01-25T04:18:07.680Z,25.68
2017-01-25T04:18:48.281Z,25.68
2017-01-25T04:19:28.914Z,25.68
2017-01-25T04:20:09.441Z,25.49
2017-01-25T04:20:50.022Z,25.68
2017-01-25T04:21:30.608Z,25.97
2017-01-25T04:22:11.203Z,25.87
2017-01-25T04:22:51.789Z,25.67
2017-01-25T04:23:32.387Z,25.78
2017-01-25T04:24:12.972Z,25.67
2017-01-25T04:24:53.548Z,25.68
2017-01-25T04:25:34.137Z,25.68
2017-01-25T04:26:14.733Z,25.86
2017-01-25T04:26:55.321Z,25.78
2017-01-25T04:27:35.979Z,25.78
2017-01-25T04:28:16.522Z,25.78
2017-01-25T04:28:57.107Z,25.57
2017-01-25T04:29:37.692Z,25.57
2017-01-25T04:30:18.259Z,25.76
2017-01-25T04:30:58.854Z,25.86
2017-01-25T04:31:39.436Z,25.57
2017-01-25T04:32:20.019Z,25.57
2017-01-25T04:33:00.598Z,25.87
2017-01-25T04:33:41.181Z,25.68
2017-01-25T04:34:21.759Z,25.57
2017-01-25T04:35:02.351Z,25.67
2017-01-25T04:35:42.936Z,25.57
2017-01-25T04:36:23.535Z,25.87
2017-01-25T04:37:04.105Z,25.67
2017-01-25T04:37:44.698Z,25.67
2017-01-25T04:38:25.290Z,25.67
2017-01-25T04:39:05.861Z,25.86
2017-01-25T04:39:46.441Z,25.76
2017-01-25T04:40:27.031Z,25.57
2017-01-25T04:41:07.628Z,25.57
2017-01-25T04:41:48.218Z,25.76
2017-01-25T04:42:28.781Z,25.67
2017-01-25T04:43:09.378Z,25.86
2017-01-25T04:43:49.967Z,25.68
2017-01-25T04:44:30.548Z,25.57
2017-01-25T04:45:11.150Z,25.67
2017-01-25T04:45:51.745Z,25.59
2017-01-25T04:46:32.333Z,25.86
2017-01-25T04:47:12.923Z,25.68
2017-01-25T04:47:53.508Z,25.67
2017-01-25T04:48:34.100Z,25.67
2017-01-25T04:49:14.720Z,25.76
2017-01-25T04:49:55.292Z,25.76
2017-01-25T04:50:35.871Z,25.68
2017-01-25T04:51:16.472Z,25.87
2017-01-25T04:51:57.037Z,25.76
2017-01-25T04:52:37.622Z,25.67
2017-01-25T04:53:18.243Z,25.97
2017-01-25T04:53:58.823Z,25.67
2017-01-25T04:54:39.409Z,25.78
2017-01-25T04:55:20.004Z,25.96
2017-01-25T04:56:00.583Z,25.96
2017-01-25T04:56:41.168Z,25.68
2017-01-25T04:57:21.758Z,25.67
2017-01-25T04:58:02.344Z,25.87
2017-01-25T04:58:42.926Z,25.67
2017-01-25T04:59:23.527Z,25.86
2017-01-25T05:00:04.115Z,25.76
2017-01-25T05:00:44.708Z,25.76
2017-01-25T05:01:25.292Z,25.67
2017-01-25T05:02:05.885Z,25.76
2017-01-25T05:02:46.472Z,25.68
2017-01-25T05:03:27.065Z,25.86
2017-01-25T05:04:07.669Z,25.96
2017-01-25T05:04:48.278Z,25.87
2017-01-25T05:05:28.869Z,25.96
2017-01-25T05:06:09.455Z,25.76
2017-01-25T05:06:50.034Z,25.96
2017-01-25T05:07:30.611Z,25.67
2017-01-25T05:08:11.202Z,25.87
2017-01-25T05:08:51.792Z,25.96
2017-01-25T05:09:32.380Z,25.67
2017-01-25T05:10:12.965Z,25.86
2017-01-25T05:10:53.539Z,25.76
2017-01-25T05:11:34.129Z,25.76
2017-01-25T05:12:14.720Z,25.86
2017-01-25T05:12:55.295Z,25.86
2017-01-25T05:13:35.874Z,25.86
2017-01-25T05:14:16.468Z,25.67
2017-01-25T05:14:57.068Z,25.96
2017-01-25T05:15:37.656Z,25.76
2017-01-25T05:16:18.233Z,25.57
2017-01-25T05:16:58.846Z,25.67
2017-01-25T05:17:39.453Z,25.87
2017-01-25T05:18:20.033Z,25.67
2017-01-25T05:19:00.629Z,25.57
2017-01-25T05:19:41.237Z,25.76
2017-01-25T05:20:21.826Z,25.67
2017-01-25T05:21:02.412Z,25.76
2017-01-25T05:21:43.011Z,25.67
2017-01-25T05:22:23.607Z,25.76
2017-01-25T05:23:04.198Z,25.76
2017-01-25T05:23:44.782Z,25.57
2017-01-25T05:24:25.369Z,25.86
2017-01-25T05:25:05.967Z,25.67
2017-01-25T05:25:46.572Z,25.57
2017-01-25T05:26:27.163Z,25.76
2017-01-25T05:27:07.748Z,25.67
2017-01-25T05:27:48.324Z,25.67
2017-01-25T05:28:28.912Z,25.86
2017-01-25T05:29:09.495Z,25.76
2017-01-25T05:29:50.075Z,25.67
2017-01-25T05:30:30.663Z,25.76
2017-01-25T05:31:11.256Z,25.86
2017-01-25T05:31:51.834Z,25.67
2017-01-25T05:32:32.425Z,25.86
2017-01-25T05:33:13.022Z,25.67
2017-01-25T05:33:53.596Z,25.57
2017-01-25T05:34:34.180Z,25.67
2017-01-25T05:35:14.779Z,25.76
2017-01-25T05:35:55.381Z,25.86
2017-01-25T05:36:35.981Z,25.86
2017-01-25T05:37:16.563Z,25.57
2017-01-25T05:37:57.150Z,25.67
2017-01-25T05:38:37.732Z,25.67
2017-01-25T05:39:18.327Z,25.76
2017-01-25T05:39:58.910Z,25.67
2017-01-25T05:40:39.499Z,25.76
2017-01-25T05:41:20.091Z,25.67
2017-01-25T05:42:00.668Z,25.86
2017-01-25T05:42:41.249Z,25.86
2017-01-25T05:43:21.846Z,25.76
2017-01-25T05:44:02.458Z,25.76
2017-01-25T05:44:43.041Z,25.86
2017-01-25T05:45:23.628Z,25.67
2017-01-25T05:46:04.211Z,25.76
2017-01-25T05:46:44.798Z,25.57
2017-01-25T05:47:25.390Z,25.67
2017-01-25T05:48:05.974Z,25.67
2017-01-25T05:48:46.560Z,25.67
2017-01-25T05:49:27.162Z,25.57
2017-01-25T05:50:07.762Z,25.96
2017-01-25T05:50:48.343Z,25.86
2017-01-25T05:51:28.923Z,25.76
2017-01-25T05:52:09.503Z,25.76
2017-01-25T05:52:50.085Z,25.76
2017-01-25T05:53:30.697Z,25.86
2017-01-25T05:54:11.295Z,25.76
2017-01-25T05:54:51.875Z,25.86
2017-01-25T05:55:32.454Z,25.57
2017-01-25T05:56:13.036Z,25.57
2017-01-25T05:56:53.618Z,25.76
2017-01-25T05:57:34.209Z,25.76
2017-01-25T05:58:14.797Z,25.67
2017-01-25T05:58:55.388Z,25.67
2017-01-25T05:59:35.989Z,25.57
2017-01-25T06:00:16.585Z,25.76
2017-01-25T06:00:57.172Z,25.67
2017-01-25T06:01:37.756Z,25.67
2017-01-25T06:02:18.339Z,25.48
2017-01-25T06:02:58.920Z,25.38
2017-01-25T06:03:39.513Z,25.28
2017-01-25T06:04:20.095Z,25.38
2017-01-25T06:05:00.675Z,25.48
2017-01-25T06:05:41.271Z,25.48
2017-01-25T06:06:21.850Z,25.57
2017-01-25T06:07:02.434Z,25.48
2017-01-25T06:07:43.026Z,25.49
2017-01-25T06:08:23.614Z,25.38
2017-01-25T06:09:04.198Z,25.19
2017-01-25T06:09:44.780Z,25.29
2017-01-25T06:10:25.360Z,25.48
2017-01-25T06:11:05.944Z,25.57
2017-01-25T06:11:46.515Z,25.19
2017-01-25T06:12:27.117Z,25.48
2017-01-25T06:13:07.715Z,25.38
2017-01-25T06:13:48.292Z,25.29
2017-01-25T06:14:28.871Z,25.48
2017-01-25T06:15:09.457Z,25.48
2017-01-25T06:15:50.039Z,25.28
2017-01-25T06:16:30.625Z,25.38
2017-01-25T06:17:11.219Z,25.38
2017-01-25T06:17:51.790Z,25.49
2017-01-25T06:18:32.382Z,25.48
2017-01-25T06:19:12.965Z,25.49
2017-01-25T06:19:53.556Z,25.28
2017-01-25T06:20:34.137Z,25.28
2017-01-25T06:21:14.737Z,25.28
2017-01-25T06:21:55.328Z,25.48
2017-01-25T06:22:35.909Z,25.49
2017-01-25T06:23:16.513Z,25.2
2017-01-25T06:23:57.091Z,25.29
2017-01-25T06:24:37.668Z,25.49
2017-01-25T06:25:18.271Z,25.49
2017-01-25T06:25:58.862Z,25.09
2017-01-25T06:26:39.440Z,25.57
2017-01-25T06:27:20.036Z,25.1
2017-01-25T06:28:00.627Z,25.19
2017-01-25T06:28:41.196Z,25.2
2017-01-25T06:29:21.775Z,25.2
2017-01-25T06:30:02.393Z,25.2
2017-01-25T06:30:42.986Z,25.19
2017-01-25T06:31:23.588Z,25.2
2017-01-25T06:32:04.167Z,25.39
2017-01-25T06:32:44.757Z,25.78
2017-01-25T06:33:25.371Z,25.2
2017-01-25T06:34:05.961Z,25.2
2017-01-25T06:34:46.553Z,25.2
2017-01-25T06:35:27.150Z,25.2
2017-01-25T06:36:07.735Z,25.59
2017-01-25T06:36:48.330Z,25.2
2017-01-25T06:37:28.921Z,25.2
2017-01-25T06:38:09.495Z,25.1
2017-01-25T06:38:50.079Z,25.29
2017-01-25T06:39:30.670Z,25.39
2017-01-25T06:40:11.259Z,25.49
2017-01-25T06:40:51.857Z,25.1
2017-01-25T06:41:32.451Z,25.39
2017-01-25T06:42:13.036Z,25.39
2017-01-25T06:42:53.610Z,25.29
2017-01-25T06:43:34.209Z,25.1
2017-01-25T06:44:14.791Z,25.49
2017-01-25T06:44:55.385Z,25.39
2017-01-25T06:45:35.978Z,25.2
2017-01-25T06:46:16.574Z,25.1
2017-01-25T06:46:57.167Z,25.2
2017-01-25T06:47:37.750Z,25.2
2017-01-25T06:48:18.351Z,25.01
2017-01-25T06:48:58.931Z,25.1
2017-01-25T06:49:39.525Z,25.2
2017-01-25T06:50:20.099Z,25.2
2017-01-25T06:51:00.690Z,25.29
2017-01-25T06:51:41.272Z,25.1
2017-01-25T06:52:21.860Z,25.29
2017-01-25T06:53:02.447Z,25.29
2017-01-25T06:53:43.028Z,25.49
2017-01-25T06:54:23.615Z,25.29
2017-01-25T06:55:04.223Z,25.29
2017-01-25T06:55:44.808Z,25.59
2017-01-25T06:56:25.399Z,25.29
2017-01-25T06:57:05.985Z,25.1
2017-01-25T06:57:46.563Z,25.49
2017-01-25T06:58:27.142Z,25.1
2017-01-25T06:59:07.740Z,25.1
2017-01-25T06:59:48.323Z,25.2
2017-01-25T07:00:28.926Z,25.49
2017-01-25T07:01:09.517Z,25.2
2017-01-25T07:01:50.100Z,25.1
2017-01-25T07:02:30.680Z,25.39
2017-01-25T07:03:11.257Z,25.29
2017-01-25T07:03:51.847Z,25.2
2017-01-25T07:04:32.441Z,25.2
2017-01-25T07:05:13.056Z,25.2
2017-01-25T07:05:53.646Z,25.2
2017-01-25T07:06:34.233Z,24.91
2017-01-25T07:07:14.837Z,25.01
2017-01-25T07:07:55.418Z,25.01
2017-01-25T07:08:36.000Z,24.91
2017-01-25T07:09:16.577Z,24.81
2017-01-25T07:09:57.197Z,24.72
2017-01-25T07:10:37.780Z,24.72
2017-01-25T07:11:18.395Z,24.81
2017-01-25T07:11:58.991Z,24.81
2017-01-25T07:12:39.582Z,24.72
2017-01-25T07:13:20.172Z,24.52
2017-01-25T07:14:00.766Z,24.72
2017-01-25T07:14:41.344Z,24.62
2017-01-25T07:15:21.938Z,24.52
2017-01-25T07:16:02.520Z,24.72
2017-01-25T07:16:43.100Z,24.72
2017-01-25T07:17:23.697Z,24.62
2017-01-25T07:18:04.304Z,24.52
2017-01-25T07:18:44.894Z,24.62
2017-01-25T07:19:25.484Z,24.62
2017-01-25T07:20:06.091Z,24.23
2017-01-25T07:20:46.687Z,24.23
2017-01-25T07:21:27.288Z,24.43
2017-01-25T07:22:07.902Z,24.43
2017-01-25T07:22:48.485Z,24.33
2017-01-25T07:23:29.080Z,24.33
2017-01-25T07:24:09.689Z,24.33
2017-01-25T07:24:50.312Z,24.33
2017-01-25T07:25:30.912Z,23.94
2017-01-25T07:26:11.500Z,23.94
2017-01-25T07:26:52.111Z,23.65
2017-01-25T07:27:32.716Z,23.46
2017-01-25T07:28:13.316Z,22.78
2017-01-25T07:28:53.898Z,22.69
2017-01-25T07:29:34.475Z,22.7
2017-01-25T07:30:15.062Z,22.8
2017-01-25T07:30:55.659Z,22.7
2017-01-25T07:31:36.255Z,22.8
2017-01-25T07:32:16.853Z,22.31
2017-01-25T07:32:57.458Z,21.92
2017-01-25T07:33:38.061Z,21.83
2017-01-25T07:34:18.643Z,22.02
2017-01-25T07:34:59.237Z,21.92
2017-01-25T07:35:39.833Z,22.12
2017-01-25T07:36:20.453Z,22.03
2017-01-25T07:37:01.041Z,21.75
2017-01-25T07:37:41.658Z,21.54
2017-01-25T07:38:22.240Z,22.03
2017-01-25T07:39:02.833Z,21.26
2017-01-25T07:39:43.438Z,21.17
2017-01-25T07:40:24.051Z,21.36
2017-01-25T07:41:04.641Z,21.36
2017-01-25T07:41:45.245Z,21.36
2017-01-25T07:42:25.842Z,21.17
2017-01-25T07:43:06.473Z,21.17
2017-01-25T07:43:47.041Z,21.07
2017-01-25T07:44:27.634Z,21.17
2017-01-25T07:45:08.224Z,20.79
2017-01-25T07:45:48.845Z,20.98
2017-01-25T07:46:29.405Z,20.59
2017-01-25T07:47:10.005Z,20.4
2017-01-25T07:47:50.594Z,20.69
2017-01-25T07:48:31.217Z,20.5
2017-01-25T07:49:11.844Z,20.59
2017-01-25T07:49:52.454Z,20.69
2017-01-25T07:50:33.064Z,20.4
2017-01-25T07:51:13.645Z,20.4
2017-01-25T07:51:54.272Z,20.69
2017-01-25T07:52:34.857Z,20.5
2017-01-25T07:53:15.457Z,20.01
2017-01-25T07:53:56.037Z,20.31
2017-01-25T07:54:36.646Z,20.31
2017-01-25T07:55:17.214Z,20.4
2017-01-25T07:55:57.831Z,20.31
2017-01-25T07:56:38.411Z,20.21
2017-01-25T07:57:18.990Z,20.4
2017-01-25T07:57:59.590Z,19.92
2017-01-25T07:58:40.174Z,20.11
2017-01-25T07:59:20.769Z,20.11
2017-01-25T08:00:01.389Z,20.11
2017-01-25T08:00:42.001Z,20.01
2017-01-25T08:01:22.605Z,20.01
2017-01-25T08:02:03.211Z,20.31
2017-01-25T08:02:43.831Z,20.11
2017-01-25T08:03:24.440Z,20.11
2017-01-25T08:04:05.110Z,20.11
2017-01-25T08:04:45.947Z,20.01
2017-01-25T08:05:27.158Z,20.11
2017-01-25T08:06:07.750Z,19.24
2017-01-25T08:06:48.332Z,19.82
2017-01-25T08:07:28.956Z,19.34
2017-01-25T08:08:09.547Z,19.43
2017-01-25T08:08:50.140Z,19.73
2017-01-25T08:09:30.747Z,19.54
2017-01-25T08:10:11.341Z,19.54
2017-01-25T08:10:51.930Z,19.34
2017-01-25T08:11:32.531Z,19.15
2017-01-25T08:12:13.155Z,19.53
2017-01-25T08:12:53.756Z,19.15
2017-01-25T08:13:34.340Z,19.25
2017-01-25T08:14:14.940Z,19.45
2017-01-25T08:14:55.525Z,19.35
2017-01-25T08:15:36.121Z,19.06
2017-01-25T08:16:17.688Z,19.06
2017-01-25T08:16:58.289Z,19.15
2017-01-25T08:17:38.919Z,19.35
2017-01-25T08:18:19.509Z,19.35
2017-01-25T08:19:00.124Z,19.25
2017-01-25T08:19:40.712Z,19.25
2017-01-25T08:20:21.286Z,18.77
2017-01-25T08:21:01.892Z,19.15
2017-01-25T08:21:43.082Z,19.06
2017-01-25T08:22:23.670Z,18.87
2017-01-25T08:23:04.289Z,18.96
2017-01-25T08:23:44.882Z,19.06
2017-01-25T08:24:25.463Z,18.87
2017-01-25T08:25:06.069Z,18.48
2017-01-25T08:25:46.671Z,18.77
2017-01-25T08:26:27.253Z,18.68
2017-01-25T08:27:07.841Z,18.19
2017-01-25T08:27:48.428Z,18.59
2017-01-25T08:28:29.048Z,18.68
2017-01-25T08:29:09.654Z,18.59
2017-01-25T08:29:50.235Z,18.77
2017-01-25T08:30:30.830Z,18.68
2017-01-25T08:31:11.433Z,18.77
2017-01-25T08:31:52.035Z,18.49
2017-01-25T08:32:32.612Z,18.19
2017-01-25T08:33:13.205Z,18.39
2017-01-25T08:33:53.794Z,18.19
2017-01-25T08:34:34.429Z,17.82
2017-01-25T08:35:14.996Z,18
2017-01-25T08:35:55.619Z,17.72
2017-01-25T08:36:36.224Z,18
2017-01-25T08:37:16.838Z,18.29
2017-01-25T08:37:57.435Z,17.91
2017-01-25T08:38:38.025Z,17.91
2017-01-25T08:39:18.623Z,17.91
2017-01-25T08:39:59.248Z,18.01
2017-01-25T08:40:39.832Z,18.01
2017-01-25T08:41:20.431Z,18.01
2017-01-25T08:42:01.041Z,18.01
2017-01-25T08:42:41.638Z,17.72
2017-01-25T08:43:22.223Z,17.9
2017-01-25T08:44:02.801Z,17.52
2017-01-25T08:44:43.393Z,17.52
2017-01-25T08:45:24.001Z,17.9